Hauptseite
METAR-TAF:

METAR-TAF

Flughäfen :

Hannover, Deutschland

Flughafen Hannover-Langenhagen

Breite: 52-28N, Länge: 009-41E, Höhe: 56 m

Beobachtung

Neuester Wetterbericht von vor 22 Minuten, um 06:20 UTC
Wind 6 kt aus Süd
Temperatur 14°C
Luftfeuchtigkeit 77%
Luftdruck 1010 hPa
Sichtweite 10 km oder mehr
keine Wolken unter 1500 m und keine Kumulonimbus oder Gewitterwolken

METAR: EDDV 200620Z 17006KT CAVOK 14/10 Q1010 NOSIG

Zeit: 08:42 (06:42 UTC)

Prognose

Neuester Wetterbericht von vor 1 Stunde und 42 Minuten, um 05:00 UTC
Gültige Prognose vom 20 um 06 UTC bis 21 um 06 UTC
Wind 7 kt aus Süd
Sichtweite 10 km oder mehr
Aufgelockert bewölkt in der Höhe von 4000 ft

TAF: EDDV 200500Z 2006/2106 19007KT 9999 SCT040

Wetterbeobachtungen und Prognosen von mehr als 4000 Flughäfen (METAR und TAF Bericht).

Die verfügbaren Stationen werden durch gelbe und rote Markierungen auf der Karte dargestellt.

Führen Sie die Maus auf sie, um den Namen der Station zu sehen.

Darauf klicken, um die Beobachtung von Wetterbeobachtungen und Prognosen zu sehen.

Um die Karte zu ändern : klicken Sie auf den grünen Tasten mit einem schwarzen Kreuz Zum Vergrößern, auf den grünen Button mit einem Gedankenstrich zu verkleinern, oder auf die grünen Pfeile für benachbarte Karten.


METAR-TAF: